Benfica (Benevides), Brazil
Current Conditions -  °F | °C
As of 5:00 PM on Friday 28 Nov 2014 (Local Time) from SBBE Reporting Station
Scattered Clouds Scattered Clouds  
Wind Chill: 84°   Ceiling: Unl
Heat Index: 91°   Visibility: 6mi
Dew Point: 73°   Wind: 9mph
Humidity: 70%   Direction: 30°NNE
Pressure: 29.8"   Gusts: NA
Location:  1.3°S, 48.3°W
Report Text: SBBE 282000Z 03008KT 9999 SCT040 29/23 Q1009
Loading
Personal Weather Stations






























Interactive Weather Map New forecast layout! Learn more

10-Day Weather Forecast

Advertisements
Track Severe Weather on mobile